Time;durP1;ratioP1;P1;durP2;ratioP2;P2;SDS_P1;SDS_P2;PMS_P1;PMS_P2;Temp;Humidity;BMP_temperature;BMP_pressure;BME280_temperature;BME280_humidity;BME280_pressure;Samples;Min_cycle;Max_cycle;Signal;HPM_P1;HPM_P2
2021/03/16 08:08:47;;;;;;;9.05;2.60;;;4.20;76.40;;;4.19;66.09;98174.50;5043652;28;20038;-32
2021/03/16 08:11:42;;;;;;;6.07;2.17;;;4.20;76.50;;;4.20;65.58;98182.31;5066536;28;20336;-33
2021/03/16 08:14:30;;;;;;;8.27;3.43;;;4.20;76.60;;;4.25;65.81;98176.75;5069978;28;20268;-32
2021/03/16 08:17:29;;;;;;;5.67;2.47;;;4.20;77.20;;;4.22;65.66;98179.56;5083839;28;20059;-32
2021/03/16 08:20:26;;;;;;;7.53;2.90;;;4.20;76.50;;;4.27;66.07;98194.13;5088178;28;20051;-32
2021/03/16 08:23:14;;;;;;;5.30;2.37;;;4.20;76.60;;;4.28;65.50;98198.44;5085345;28;20245;-32
2021/03/16 08:26:01;;;;;;;8.67;3.27;;;4.20;76.60;;;4.27;66.07;98195.91;5082693;28;20059;-32
2021/03/16 08:28:49;;;;;;;5.30;2.63;;;4.20;77.10;;;4.35;65.82;98198.84;5072281;28;20110;-32
2021/03/16 08:31:44;;;;;;;7.27;4.00;;;4.30;76.50;;;4.37;65.72;98194.31;5084055;28;20376;-33
2021/03/16 08:34:31;;;;;;;7.23;3.80;;;4.30;76.40;;;4.30;65.78;98193.06;5073213;28;20047;-33
2021/03/16 08:37:32;;;;;;;7.70;2.63;;;4.30;77.00;;;4.42;65.54;98188.69;5071206;28;20238;-33
2021/03/16 08:40:35;;;;;;;8.13;2.63;;;4.30;77.20;;;4.36;65.46;98189.13;5083236;28;20390;-33
2021/03/16 08:43:22;;;;;;;5.60;3.87;;;4.30;76.20;;;4.27;65.81;98193.28;5086484;28;20055;-33
2021/03/16 08:46:11;;;;;;;7.27;2.90;;;4.20;76.90;;;4.28;65.57;98193.16;5084930;28;20392;-33
2021/03/16 08:48:57;;;;;;;6.43;3.17;;;4.20;76.80;;;4.33;65.75;98201.59;5081678;28;20051;-33
2021/03/16 08:51:43;;;;;;;5.90;3.20;;;4.30;77.00;;;4.38;65.67;98214.47;5086581;28;20230;-33
2021/03/16 08:54:30;;;;;;;6.13;3.00;;;4.30;77.70;;;4.32;65.69;98210.47;5084095;28;20372;-33
2021/03/16 08:57:24;;;;;;;3.30;2.40;;;4.20;77.30;;;4.25;66.13;98208.38;5088468;28;20067;-33
2021/03/16 09:00:11;;;;;;;11.63;3.53;;;4.10;78.30;;;4.19;66.58;98212.28;5071034;28;20050;-33
2021/03/16 09:02:57;;;;;;;6.53;3.33;;;4.10;79.80;;;4.31;66.66;98219.31;5081414;28;20058;-33
2021/03/16 09:05:43;;;;;;;4.80;2.50;;;4.20;80.10;;;4.34;67.11;98218.25;5086907;28;20047;-33
2021/03/16 09:08:29;;;;;;;8.07;3.00;;;4.20;80.10;;;4.26;67.69;98228.50;5083247;28;20237;-33
2021/03/16 09:11:41;;;;;;;6.27;2.50;;;4.20;80.50;;;4.12;67.56;98237.34;5083002;28;20055;-34
2021/03/16 09:14:27;;;;;;;6.80;3.27;;;3.90;81.90;;;4.15;67.92;98245.06;5071280;28;20042;-33
2021/03/16 09:17:12;;;;;;;6.17;2.77;;;3.90;82.90;;;4.21;67.40;98239.38;5084439;28;20051;-33
2021/03/16 09:20:10;;;;;;;4.47;2.20;;;4.00;83.40;;;4.09;68.52;98238.44;5066115;28;20063;-34
2021/03/16 09:23:06;;;;;;;6.70;2.83;;;3.90;83.70;;;4.08;68.43;98247.25;5077955;28;20051;-33
2021/03/16 09:25:52;;;;;;;4.77;2.60;;;3.80;83.60;;;4.12;68.61;98250.53;5074905;28;20062;-34
2021/03/16 09:28:40;;;;;;;8.13;3.27;;;3.90;83.60;;;4.01;69.31;98246.00;5071587;28;20050;-33
2021/03/16 09:31:26;;;;;;;9.83;2.77;;;3.80;84.00;;;3.96;69.25;98250.75;5069377;28;20050;-33
2021/03/16 09:34:13;;;;;;;8.93;3.03;;;3.70;84.90;;;3.98;69.14;98248.03;5065213;28;20050;-34
2021/03/16 09:37:10;;;;;;;7.83;2.77;;;3.80;85.20;;;4.04;69.16;98245.78;5074258;28;20090;-33
2021/03/16 09:40:03;;;;;;;7.20;3.00;;;3.80;85.60;;;4.05;68.79;98252.75;5083676;28;20052;-33
2021/03/16 09:42:48;;;;;;;9.90;4.07;;;3.80;85.20;;;4.13;69.39;98255.72;5080268;28;20056;-33
2021/03/16 09:45:22;;;;;;;13.15;4.70;;;3.90;85.50;;;4.21;68.81;98242.00;5082422;28;20052;-33
2021/03/16 09:47:50;;;;;;;9.90;3.17;;;4.00;85.40;;;4.18;69.19;98251.91;5082331;28;20049;-33
2021/03/16 09:50:23;;;;;;;10.43;3.50;;;4.00;86.10;;;4.24;69.25;98265.50;5082013;28;20290;-34
2021/03/16 09:53:05;;;;;;;13.33;5.17;;;4.00;86.00;;;4.36;68.98;98261.16;5081731;28;20037;-33
2021/03/16 09:55:34;;;;;;;10.63;4.03;;;4.20;85.90;;;4.49;68.93;98255.88;5064448;28;20291;-33
2021/03/16 09:58:03;;;;;;;12.70;4.07;;;4.30;85.70;;;4.55;69.29;98255.44;5064511;28;20367;-33
2021/03/16 10:00:30;;;;;;;5.60;4.20;;;4.40;84.60;;;4.51;69.31;98243.44;5082201;28;20051;-33
2021/03/16 10:03:09;;;;;;;7.97;3.97;;;4.40;84.10;;;4.64;69.18;98248.69;5063195;28;20389;-34
2021/03/16 10:05:37;;;;;;;8.90;4.47;;;4.50;84.20;;;4.71;69.29;98244.63;5082191;28;20055;-34
2021/03/16 10:08:04;;;;;;;8.43;3.53;;;4.60;84.10;;;4.78;69.44;98242.41;5082173;28;20044;-34
2021/03/16 10:10:37;;;;;;;10.87;3.47;;;4.70;84.20;;;4.85;69.33;98241.88;5080893;28;20052;-34
2021/03/16 10:13:07;;;;;;;7.50;3.73;;;4.80;84.10;;;4.88;69.04;98241.63;5081400;28;20051;-34
2021/03/16 10:15:41;;;;;;;7.90;4.33;;;4.80;83.10;;;4.99;68.90;98238.22;5082047;28;20040;-34
2021/03/16 10:18:12;;;;;;;7.82;3.83;;;4.90;83.00;;;5.12;68.42;98246.09;5082008;28;20040;-34
2021/03/16 10:20:51;;;;;;;7.80;3.80;;;5.10;83.20;;;5.25;68.89;98238.09;5081631;28;20338;-34
2021/03/16 10:23:22;;;;;;;6.67;3.70;;;5.30;81.60;;;5.35;68.40;98241.78;5081531;28;20044;-34
2021/03/16 10:26:10;;;;;;;8.70;3.27;;;5.40;80.60;;;5.40;67.57;98236.97;5075309;28;20044;-34
2021/03/16 10:28:41;;;;;;;7.63;3.67;;;5.50;79.00;;;5.46;67.09;98238.31;5081888;28;20351;-34
2021/03/16 10:31:21;;;;;;;6.70;3.20;;;5.50;78.80;;;5.37;67.09;98233.72;5081458;28;20052;-34
2021/03/16 10:33:53;;;;;;;6.97;3.13;;;5.40;78.50;;;5.23;65.37;98232.94;5081402;28;20037;-34
2021/03/16 10:36:21;;;;;;;5.27;3.00;;;5.30;76.50;;;5.28;66.27;98232.59;5081874;28;20041;-34
2021/03/16 10:38:50;;;;;;;7.57;3.80;;;5.30;76.50;;;5.31;64.82;98229.72;5073682;28;20047;-34
2021/03/16 10:41:19;;;;;;;7.27;3.70;;;5.30;73.70;;;5.27;64.98;98237.06;5085541;28;20038;-34
2021/03/16 10:43:47;;;;;;;4.13;2.27;;;5.20;74.00;;;5.20;64.42;98237.63;5085048;28;20236;-34
2021/03/16 10:46:16;;;;;;;7.37;3.00;;;5.20;73.80;;;5.17;64.62;98228.13;5085329;28;20048;-34
2021/03/16 10:48:45;;;;;;;6.47;3.17;;;5.20;74.30;;;5.27;64.95;98223.00;5067814;28;20078;-34
2021/03/16 10:51:13;;;;;;;8.50;2.77;;;5.20;73.80;;;5.26;63.61;98227.44;5067915;28;20048;-34
2021/03/16 10:53:41;;;;;;;6.73;2.83;;;5.20;72.30;;;5.21;62.54;98231.38;5067070;28;20044;-34
2021/03/16 10:56:08;;;;;;;6.53;3.33;;;5.20;70.30;;;5.34;62.83;98234.78;5084531;28;20346;-34
2021/03/16 10:58:36;;;;;;;11.03;3.10;;;5.30;71.30;;;5.42;63.47;98224.50;5085204;28;20048;-34
2021/03/16 11:01:03;;;;;;;4.70;3.00;;;5.40;73.20;;;5.47;62.96;98221.53;5083940;28;20044;-34
2021/03/16 11:03:35;;;;;;;6.50;2.80;;;5.50;72.70;;;5.43;62.48;98231.47;5084595;28;20049;-34
2021/03/16 11:06:03;;;;;;;8.20;3.00;;;5.50;70.50;;;5.44;62.69;98233.16;5067301;28;20109;-34
2021/03/16 11:08:32;;;;;;;6.13;2.63;;;5.40;72.10;;;5.48;63.27;98236.41;5085452;28;20051;-34
2021/03/16 11:10:59;;;;;;;6.50;2.70;;;5.50;71.20;;;5.35;61.87;98241.78;5084562;28;20056;-34
2021/03/16 11:13:26;;;;;;;6.03;2.13;;;5.30;69.30;;;5.27;61.93;98247.63;5084461;28;20247;-34
2021/03/16 11:15:54;;;;;;;6.57;2.57;;;5.20;70.90;;;5.26;62.76;98247.72;5084918;28;20238;-34
2021/03/16 11:18:22;;;;;;;8.67;2.77;;;5.10;72.80;;;5.27;62.75;98239.69;5067584;28;20357;-34
2021/03/16 11:20:50;;;;;;;8.43;2.57;;;5.20;73.00;;;5.18;62.90;98242.16;5084742;28;20338;-34
2021/03/16 11:23:17;;;;;;;4.67;2.00;;;5.10;73.10;;;5.10;62.70;98251.50;5084405;28;20056;-34
2021/03/16 11:25:45;;;;;;;5.83;2.13;;;5.10;72.80;;;5.05;62.96;98248.31;5084255;28;20063;-35
2021/03/16 11:28:13;;;;;;;6.60;3.03;;;5.00;71.50;;;5.13;62.36;98245.13;5084823;28;20049;-34
2021/03/16 11:30:40;;;;;;;8.63;2.63;;;5.10;72.70;;;5.15;63.11;98253.78;5066871;28;20250;-34
2021/03/16 11:33:08;;;;;;;6.93;2.73;;;5.10;72.10;;;5.22;61.53;98248.91;5084213;28;20044;-34
2021/03/16 11:35:57;;;;;;;5.83;2.40;;;5.30;70.10;;;5.26;62.35;98251.19;5085855;28;20055;-34
2021/03/16 11:38:44;;;;;;;10.47;3.27;;;5.30;72.00;;;5.36;61.64;98246.09;5074862;28;20050;-34
2021/03/16 11:41:29;;;;;;;4.43;2.13;;;5.40;71.20;;;5.47;61.86;98248.78;5072565;28;20047;-35
2021/03/16 11:44:15;;;;;;;6.23;2.70;;;5.60;70.20;;;5.54;61.80;98243.84;5085050;28;20066;-34
2021/03/16 11:47:01;;;;;;;4.33;2.40;;;5.70;69.60;;;5.56;60.70;98239.31;5089609;28;20368;-34
2021/03/16 11:49:47;;;;;;;4.53;2.47;;;5.70;68.20;;;5.63;58.77;98237.06;5082532;28;20051;-34
2021/03/16 11:52:33;;;;;;;5.50;2.70;;;5.80;65.80;;;5.73;60.78;98248.59;5083371;28;20047;-34
2021/03/16 11:55:19;;;;;;;4.83;2.70;;;5.90;69.30;;;5.73;59.21;98238.03;5089475;28;20390;-34
2021/03/16 11:58:05;;;;;;;8.37;2.90;;;5.90;65.40;;;5.72;58.67;98231.91;5087597;28;20047;-34
2021/03/16 12:00:52;;;;;;;8.43;2.90;;;5.90;64.70;;;5.75;56.46;98232.66;5084475;28;20043;-34
2021/03/16 12:03:38;;;;;;;5.10;2.40;;;5.90;62.90;;;5.88;59.13;98244.81;5087483;28;20446;-34
2021/03/16 12:06:25;;;;;;;4.87;2.40;;;6.00;66.10;;;5.81;56.84;98235.66;5064150;28;20067;-34
2021/03/16 12:09:11;;;;;;;7.63;2.47;;;5.90;63.60;;;5.78;57.23;98242.97;5064026;28;20047;-34
2021/03/16 12:11:57;;;;;;;3.77;1.77;;;5.80;63.60;;;5.70;56.10;98235.66;5067772;28;20052;-34
2021/03/16 12:14:42;;;;;;;4.10;2.13;;;5.70;63.40;;;5.72;56.89;98226.63;5066179;28;20360;-34
2021/03/16 12:17:28;;;;;;;6.63;2.60;;;5.80;62.70;;;5.76;55.79;98221.09;5063892;28;20044;-34
2021/03/16 12:20:15;;;;;;;7.50;2.20;;;5.80;62.10;;;5.86;56.75;98225.59;5068034;28;20047;-35
2021/03/16 12:23:01;;;;;;;6.07;2.37;;;5.90;62.20;;;5.85;55.63;98225.69;5065324;28;20242;-34
2021/03/16 12:25:51;;;;;;;4.63;2.33;;;5.90;60.40;;;5.90;54.27;98218.25;5063858;28;20134;-34
2021/03/16 12:28:37;;;;;;;4.50;2.10;;;6.00;58.90;;;5.98;55.23;98213.25;5067826;28;20047;-34
2021/03/16 12:31:23;;;;;;;4.70;2.50;;;6.10;60.80;;;6.07;55.81;98209.91;5065813;28;20234;-34
2021/03/16 12:34:09;;;;;;;5.83;2.37;;;6.20;59.30;;;6.03;53.00;98211.09;5062823;28;20044;-34
2021/03/16 12:36:55;;;;;;;7.77;2.60;;;6.10;57.60;;;5.99;52.92;98209.66;5070223;28;20394;-34
2021/03/16 12:39:41;;;;;;;3.70;2.30;;;6.10;57.50;;;6.06;54.22;98207.38;5065426;28;20043;-34
2021/03/16 12:42:27;;;;;;;5.87;2.37;;;6.20;58.80;;;6.06;51.91;98204.72;5063270;28;20059;-34
2021/03/16 12:45:13;;;;;;;4.27;1.97;;;6.10;57.60;;;6.09;53.57;98201.88;5066942;28;20361;-34
2021/03/16 12:47:59;;;;;;;4.70;1.93;;;6.20;57.70;;;6.19;53.85;98205.47;5065697;28;20047;-34
2021/03/16 12:50:45;;;;;;;5.20;2.07;;;6.30;59.10;;;6.20;53.10;98198.38;5063468;28;20048;-34
2021/03/16 12:53:31;;;;;;;5.53;2.30;;;6.30;59.30;;;6.26;52.38;98204.03;5067143;28;20219;-34
2021/03/16 12:56:17;;;;;;;5.10;2.23;;;6.30;57.00;;;6.39;53.47;98203.88;5065327;28;20044;-34
2021/03/16 12:59:02;;;;;;;6.30;2.50;;;6.50;60.00;;;6.40;52.99;98197.66;5067169;28;20052;-35
2021/03/16 13:01:48;;;;;;;6.50;1.90;;;6.50;57.70;;;6.47;53.23;98195.34;5082681;28;20245;-34
2021/03/16 13:04:34;;;;;;;3.57;1.80;;;6.50;58.10;;;6.43;51.26;98191.25;5083977;28;20047;-35
2021/03/16 13:07:21;;;;;;;4.53;1.97;;;6.50;55.80;;;6.49;51.76;98193.41;5086187;28;20336;-34
2021/03/16 13:10:08;;;;;;;6.07;2.93;;;6.60;55.80;;;6.49;52.33;98188.13;5086134;28;20051;-34
2021/03/16 13:12:54;;;;;;;3.83;1.53;;;6.60;59.20;;;6.57;52.32;98188.38;5083524;28;20043;-34
2021/03/16 13:15:41;;;;;;;5.27;1.97;;;6.70;57.10;;;6.61;51.43;98183.66;5087942;28;20242;-34
2021/03/16 13:18:42;;;;;;;4.93;1.67;;;6.80;56.10;;;6.59;51.12;98182.94;5085270;28;20047;-34
2021/03/16 13:21:28;;;;;;;5.00;1.47;;;6.70;55.00;;;6.69;51.66;98178.63;5083579;28;20070;-34
2021/03/16 13:24:14;;;;;;;5.60;2.30;;;6.80;56.10;;;6.78;51.84;98185.78;5086546;28;20046;-34
2021/03/16 13:27:00;;;;;;;7.77;2.40;;;6.90;57.20;;;6.80;50.93;98175.91;5085258;28;20058;-34
2021/03/16 13:29:49;;;;;;;5.87;1.70;;;6.90;56.80;;;6.89;51.14;98183.13;5082928;28;20138;-34
2021/03/16 13:32:36;;;;;;;4.27;1.90;;;7.00;57.00;;;6.98;51.61;98178.91;5086518;28;20055;-34
2021/03/16 13:35:23;;;;;;;5.10;2.20;;;7.10;56.40;;;7.02;51.90;98175.03;5085038;28;20051;-34
2021/03/16 13:38:09;;;;;;;5.60;2.00;;;7.10;58.30;;;7.01;50.92;98178.63;5082852;28;20062;-34
2021/03/16 13:40:55;;;;;;;2.63;1.50;;;7.10;56.10;;;7.04;50.48;98178.38;5085566;28;20046;-34
2021/03/16 13:43:41;;;;;;;3.30;1.37;;;7.10;55.00;;;7.04;49.01;98185.50;5084882;28;20051;-34
2021/03/16 13:46:27;;;;;;;7.37;1.83;;;7.10;54.70;;;6.98;49.27;98176.25;5082781;28;20066;-34
2021/03/16 13:49:13;;;;;;;6.20;2.17;;;7.10;54.30;;;6.96;49.14;98169.38;5087149;28;20050;-34
2021/03/16 13:51:59;;;;;;;6.93;1.70;;;7.00;54.50;;;6.84;49.04;98168.56;5085075;28;20237;-34
2021/03/16 13:54:45;;;;;;;8.10;2.63;;;6.90;54.30;;;6.82;49.46;98171.34;5082683;28;20047;-34
2021/03/16 13:57:33;;;;;;;5.63;1.97;;;6.80;54.40;;;6.90;49.59;98162.78;5086182;28;20245;-34
2021/03/16 14:00:19;;;;;;;5.87;2.17;;;7.00;54.20;;;6.84;49.65;98164.16;5066183;28;20043;-34
2021/03/16 14:03:05;;;;;;;6.37;1.70;;;6.90;55.90;;;6.98;50.96;98159.50;5083119;28;20058;-34
2021/03/16 14:05:53;;;;;;;4.33;1.63;;;7.10;56.90;;;7.08;50.75;98166.56;5078226;28;20233;-34
2021/03/16 14:08:39;;;;;;;3.30;1.50;;;7.20;56.20;;;7.09;49.49;98162.09;5077101;28;20046;-34
2021/03/16 14:11:25;;;;;;;5.67;2.00;;;7.20;55.50;;;7.10;50.06;98163.81;5078168;28;20059;-34
2021/03/16 14:14:11;;;;;;;6.03;2.73;;;7.20;55.80;;;7.13;50.01;98157.41;5085195;28;20039;-34
2021/03/16 14:16:57;;;;;;;5.10;1.97;;;7.20;56.70;;;7.22;50.25;98154.84;5079595;28;20245;-34
2021/03/16 14:19:43;;;;;;;6.83;2.53;;;7.30;56.70;;;7.24;49.85;98144.13;5090455;28;20254;-34
2021/03/16 14:22:29;;;;;;;4.03;1.87;;;7.40;56.00;;;7.36;49.62;98150.19;5088210;28;20055;-34
2021/03/16 14:25:15;;;;;;;5.27;2.30;;;7.50;54.80;;;7.45;49.65;98152.91;5086252;28;20047;-34
2021/03/16 14:28:01;;;;;;;2.93;1.30;;;7.60;55.30;;;7.41;48.99;98151.50;5084371;28;20372;-34
2021/03/16 14:30:47;;;;;;;5.47;1.90;;;7.50;53.90;;;7.38;48.44;98149.09;5087949;28;20051;-35
2021/03/16 14:33:34;;;;;;;3.50;1.70;;;7.50;53.80;;;7.31;48.33;98134.69;5085838;28;20043;-34
2021/03/16 14:36:26;;;;;;;2.90;1.73;;;7.30;54.30;;;7.27;48.90;98142.06;5069472;28;20047;-34
2021/03/16 14:39:12;;;;;;;8.03;2.47;;;7.30;54.50;;;7.34;48.72;98150.31;5068091;28;20063;-34
2021/03/16 14:41:57;;;;;;;4.70;2.23;;;7.30;55.20;;;7.35;49.69;98135.25;5065992;28;20047;-34
2021/03/16 14:44:43;;;;;;;3.53;1.83;;;7.40;56.00;;;7.36;48.61;98131.66;5064228;28;20063;-34
2021/03/16 14:47:29;;;;;;;8.87;2.60;;;7.50;54.10;;;7.39;49.02;98139.34;5068129;28;20055;-34
2021/03/16 14:50:15;;;;;;;3.93;1.60;;;7.60;54.70;;;7.45;49.43;98138.84;5066413;28;20051;-34
2021/03/16 14:53:01;;;;;;;5.87;1.70;;;7.70;55.00;;;7.47;47.16;98137.72;5063466;28;20071;-34
2021/03/16 14:55:47;;;;;;;3.70;1.90;;;7.70;52.60;;;7.42;46.63;98136.44;5068265;28;20352;-35
2021/03/16 14:58:34;;;;;;;4.37;1.40;;;7.70;52.40;;;7.41;47.52;98132.94;5065825;28;20247;-35
2021/03/16 15:01:20;;;;;;;3.73;2.13;;;7.60;53.10;;;7.40;47.82;98127.78;5063346;28;20587;-34
2021/03/16 15:04:07;;;;;;;4.80;1.50;;;7.50;52.90;;;7.45;48.25;98126.41;5065673;28;20051;-34
2021/03/16 15:07:04;;;;;;;3.27;2.00;;;7.60;53.40;;;7.56;48.42;98127.31;5063102;28;20055;-34
2021/03/16 15:09:50;;;;;;;3.57;1.73;;;7.70;53.50;;;7.56;47.65;98116.72;5067363;28;20242;-35
2021/03/16 15:12:36;;;;;;;4.70;1.70;;;7.70;53.40;;;7.40;47.90;98131.25;5050839;28;20063;-34
2021/03/16 15:15:31;;;;;;;3.15;1.90;;;7.60;53.90;;;7.34;48.20;98130.94;5069237;28;20380;-34
2021/03/16 15:18:16;;;;;;;4.13;1.93;;;7.40;54.70;;;7.36;48.82;98121.06;5052344;28;20047;-34
2021/03/16 15:21:14;;;;;;;6.23;2.03;;;7.40;55.80;;;7.21;49.40;98108.16;5064723;28;20074;-34
2021/03/16 15:24:00;;;;;;;4.30;2.10;;;7.20;56.60;;;7.22;50.27;98111.63;5067416;28;20059;-34
2021/03/16 15:26:47;;;;;;;6.83;2.30;;;7.20;57.00;;;7.10;49.91;98116.16;5066940;28;20051;-34
2021/03/16 15:29:33;;;;;;;5.53;2.30;;;7.10;56.50;;;7.02;50.11;98110.66;5065129;28;20440;-34
2021/03/16 15:32:19;;;;;;;5.67;3.20;;;7.00;56.60;;;7.01;50.19;98112.44;5068074;28;20238;-34
2021/03/16 15:35:09;;;;;;;5.63;2.40;;;6.80;57.20;;;7.02;51.11;98111.50;5060864;28;20058;-34
2021/03/16 15:37:54;;;;;;;6.83;2.77;;;6.80;58.00;;;6.97;50.21;98111.03;5069669;28;20050;-34
2021/03/16 15:40:41;;;;;;;8.03;3.10;;;6.80;58.00;;;6.88;51.01;98099.41;5088468;28;20051;-34
2021/03/16 15:43:28;;;;;;;5.43;3.23;;;6.80;58.50;;;6.93;51.56;98099.00;5086382;28;20046;-34
2021/03/16 15:46:14;;;;;;;3.87;2.07;;;6.80;58.80;;;6.97;51.43;98110.19;5084392;28;20364;-34
2021/03/16 15:49:00;;;;;;;5.80;2.30;;;6.80;58.90;;;6.88;51.33;98101.19;5072384;28;20051;-34
2021/03/16 15:51:47;;;;;;;3.33;2.43;;;6.80;58.60;;;6.83;52.04;98111.34;5088262;28;20058;-34
2021/03/16 15:54:33;;;;;;;6.20;2.67;;;6.70;59.50;;;6.81;51.73;98108.81;5085418;28;20043;-34
2021/03/16 15:57:19;;;;;;;4.60;2.07;;;6.70;60.20;;;6.84;52.31;98105.06;5089679;28;20230;-34
2021/03/16 16:00:07;;;;;;;7.13;2.40;;;6.70;60.00;;;6.86;52.26;98103.13;5087878;28;20051;-34
2021/03/16 16:02:53;;;;;;;4.20;2.43;;;6.70;61.00;;;6.90;52.54;98123.06;5083491;28;20047;-35
2021/03/16 16:05:40;;;;;;;4.10;2.00;;;6.80;60.80;;;6.74;55.04;98135.91;5088412;28;20046;-34
2021/03/16 16:08:26;;;;;;;8.03;2.77;;;6.60;64.30;;;6.74;54.60;98120.00;5084655;28;20050;-35
2021/03/16 16:11:12;;;;;;;7.30;2.97;;;6.50;64.40;;;6.69;55.01;98121.25;5084478;28;20055;-34
2021/03/16 16:13:57;;;;;;;6.33;2.50;;;6.40;65.30;;;6.70;54.47;98112.31;5072964;28;20047;-34
2021/03/16 16:16:43;;;;;;;5.77;2.73;;;6.50;65.70;;;6.67;54.71;98114.41;5086470;28;20046;-35
2021/03/16 16:19:30;;;;;;;8.37;2.50;;;6.40;65.90;;;6.66;55.16;98110.06;5084325;28;20043;-34
2021/03/16 16:22:16;;;;;;;8.10;2.87;;;6.40;66.40;;;6.66;56.10;98110.06;5087592;28;20120;-34
2021/03/16 16:25:07;;;;;;;4.33;2.27;;;6.40;66.70;;;6.64;56.41;98107.53;5071315;28;20050;-34
2021/03/16 16:27:53;;;;;;;6.13;2.53;;;6.40;67.10;;;6.58;56.39;98105.38;5083781;28;20063;-34
2021/03/16 16:30:41;;;;;;;4.47;3.70;;;6.30;67.20;;;6.61;56.58;98109.59;5087690;28;20380;-34
2021/03/16 16:33:27;;;;;;;6.47;2.80;;;6.30;67.30;;;6.60;56.67;98110.56;5085819;28;20051;-35
2021/03/16 16:36:13;;;;;;;4.70;2.80;;;6.30;67.30;;;6.58;56.07;98109.84;5083409;28;20051;-35
2021/03/16 16:38:59;;;;;;;7.50;3.13;;;6.30;68.20;;;6.54;56.11;98113.72;5087693;28;20067;-35
2021/03/16 16:41:46;;;;;;;3.93;2.80;;;6.20;67.80;;;6.51;56.89;98109.50;5083172;28;20222;-35
2021/03/16 16:44:33;;;;;;;4.73;2.77;;;6.20;68.60;;;6.45;57.22;98112.63;5083539;28;20247;-34
2021/03/16 16:47:19;;;;;;;6.90;3.33;;;6.10;68.60;;;6.40;57.43;98118.31;5087336;28;20059;-35
2021/03/16 16:50:07;;;;;;;5.33;2.70;;;6.10;69.20;;;6.35;56.89;98117.81;5085613;28;20054;-34
2021/03/16 16:52:53;;;;;;;4.57;2.73;;;6.10;68.70;;;6.24;58.39;98125.78;5083071;28;20055;-34
2021/03/16 16:55:39;;;;;;;9.50;3.50;;;5.90;70.00;;;6.19;58.98;98125.31;5087411;28;20046;-34
2021/03/16 16:58:26;;;;;;;7.17;3.60;;;5.80;71.90;;;6.13;59.23;98125.78;5085213;28;20066;-34
2021/03/16 17:01:12;;;;;;;9.17;4.33;;;5.70;73.30;;;6.04;60.21;98130.00;5082505;28;20047;-34
2021/03/16 17:03:58;;;;;;;9.17;4.33;;;5.60;75.50;;;5.88;61.15;98119.75;5085202;28;20070;-35
2021/03/16 17:06:45;;;;;;;9.83;5.00;;;5.40;75.40;;;5.86;59.92;98116.41;5083955;28;20047;-34
2021/03/16 17:09:33;;;;;;;6.70;4.33;;;5.30;76.40;;;5.87;60.20;98128.63;5087870;28;20047;-34
2021/03/16 17:12:20;;;;;;;8.07;3.50;;;5.30;76.00;;;5.82;60.74;98130.81;5070441;28;20368;-34
2021/03/16 17:15:08;;;;;;;11.77;6.00;;;5.30;77.10;;;5.76;60.38;98121.56;5083451;28;20043;-34
2021/03/16 17:17:54;;;;;;;8.60;5.13;;;5.20;76.90;;;5.69;60.01;98115.91;5080348;28;20238;-34
2021/03/16 17:20:42;;;;;;;8.87;4.80;;;5.10;76.70;;;5.67;60.53;98117.00;5085589;28;20048;-34
2021/03/16 17:23:28;;;;;;;10.50;6.13;;;5.10;77.80;;;5.62;59.95;98120.00;5083119;28;20046;-34
2021/03/16 17:26:15;;;;;;;8.80;5.10;;;5.10;76.30;;;5.56;60.61;98112.53;5087384;28;20051;-34
2021/03/16 17:29:00;;;;;;;10.60;4.90;;;5.00;76.30;;;5.45;61.75;98118.66;5078966;28;20382;-34
2021/03/16 17:31:49;;;;;;;11.83;6.50;;;5.00;77.00;;;5.42;61.40;98121.50;5083091;28;20110;-34
2021/03/16 17:34:35;;;;;;;8.67;6.27;;;4.90;77.20;;;5.44;61.01;98109.03;5086984;28;20043;-35
2021/03/16 17:37:21;;;;;;;13.50;7.83;;;5.00;77.40;;;5.48;60.84;98115.75;5085166;28;20043;-34
2021/03/16 17:40:08;;;;;;;6.47;4.93;;;5.00;78.10;;;5.48;61.05;98121.03;5077784;28;20043;-34
2021/03/16 17:42:54;;;;;;;7.47;4.00;;;5.10;76.90;;;5.48;61.35;98121.03;5086560;28;20106;-34
2021/03/16 17:45:40;;;;;;;5.83;3.70;;;5.10;76.30;;;5.45;60.63;98131.84;5084295;28;20050;-34
2021/03/16 17:48:26;;;;;;;11.47;5.27;;;5.10;76.70;;;5.41;60.94;98129.53;5085996;28;20046;-34
2021/03/16 17:51:12;;;;;;;10.00;4.00;;;5.00;77.10;;;5.39;61.08;98128.81;5084831;28;20051;-34
2021/03/16 17:53:58;;;;;;;4.77;3.83;;;4.90;77.20;;;5.37;61.73;98128.09;5082238;28;20046;-34
2021/03/16 17:56:43;;;;;;;7.87;4.40;;;4.90;77.00;;;5.31;61.91;98132.91;5086961;28;20043;-34
2021/03/16 17:59:30;;;;;;;7.37;4.13;;;4.80;77.10;;;5.24;62.14;98123.75;5084720;28;20043;-34
2021/03/16 18:02:16;;;;;;;9.13;4.80;;;4.70;78.40;;;5.22;61.98;98132.75;5081888;28;20043;-35
2021/03/16 18:05:04;;;;;;;8.27;3.90;;;4.70;78.10;;;5.19;62.42;98130.34;5082184;28;20055;-35
2021/03/16 18:07:50;;;;;;;8.33;4.03;;;4.70;78.40;;;5.21;62.14;98137.16;5084217;28;20071;-35
2021/03/16 18:10:36;;;;;;;7.93;6.07;;;4.80;78.30;;;5.23;62.16;98142.34;5084190;28;20055;-35
2021/03/16 18:13:23;;;;;;;7.37;4.57;;;4.80;78.10;;;5.24;62.41;98150.16;5087492;28;20321;-35
2021/03/16 18:16:09;;;;;;;8.53;3.90;;;4.80;78.60;;;5.21;62.90;98155.66;5085329;28;20384;-35
2021/03/16 18:18:58;;;;;;;7.57;4.33;;;4.80;78.80;;;5.13;63.19;98169.41;5069373;28;20042;-35
2021/03/16 18:21:44;;;;;;;7.87;4.33;;;4.70;79.30;;;5.04;64.47;98159.56;5085101;28;20046;-35
2021/03/16 18:24:30;;;;;;;10.87;4.97;;;4.60;80.10;;;4.87;64.45;98157.34;5088526;28;20051;-35
2021/03/16 18:27:16;;;;;;;9.20;5.20;;;4.50;80.70;;;4.79;66.36;98159.66;5088691;28;20047;-35
2021/03/16 18:30:03;;;;;;;8.27;5.33;;;4.40;82.60;;;4.80;64.83;98151.66;5083987;28;20046;-34
2021/03/16 18:32:49;;;;;;;7.47;4.43;;;4.40;82.20;;;4.82;65.14;98147.09;5103217;28;20046;-34
2021/03/16 18:35:35;;;;;;;7.00;4.90;;;4.50;81.30;;;4.77;66.43;98151.91;5102566;28;20042;-34
2021/03/16 18:38:21;;;;;;;9.37;5.10;;;4.40;82.60;;;4.77;66.53;98159.81;5100934;28;20248;-34
2021/03/16 18:41:08;;;;;;;8.10;4.70;;;4.40;83.10;;;4.80;65.41;98156.09;5090181;28;20046;-34
2021/03/16 18:43:55;;;;;;;8.30;5.10;;;4.40;83.00;;;4.77;65.58;98162.44;5087565;28;20046;-34
2021/03/16 18:46:41;;;;;;;10.67;4.47;;;4.50;81.90;;;4.69;66.18;98157.72;5085800;28;20050;-34
2021/03/16 18:49:28;;;;;;;8.03;4.63;;;4.40;82.20;;;4.59;66.65;98153.22;5104878;28;20070;-34
2021/03/16 18:52:14;;;;;;;9.13;5.10;;;4.30;83.50;;;4.56;67.38;98151.66;5103042;28;20367;-34
2021/03/16 18:55:00;;;;;;;8.30;4.47;;;4.30;83.50;;;4.57;66.87;98144.56;5100858;28;20042;-35
2021/03/16 18:57:45;;;;;;;10.80;4.90;;;4.30;82.40;;;4.62;66.54;98147.72;5105190;28;20043;-34
2021/03/16 19:00:31;;;;;;;6.73;4.13;;;4.30;82.50;;;4.67;66.66;98141.16;5106542;28;20050;-34
2021/03/16 19:03:18;;;;;;;7.53;5.07;;;4.40;82.30;;;4.74;66.89;98145.03;5102516;28;20059;-34
2021/03/16 19:06:05;;;;;;;9.63;5.37;;;4.40;83.20;;;4.78;65.91;98139.53;5080535;28;20050;-34
2021/03/16 19:08:51;;;;;;;9.87;5.30;;;4.50;82.50;;;4.74;66.78;98138.91;5065768;28;20043;-34
2021/03/16 19:11:37;;;;;;;9.17;5.37;;;4.50;82.10;;;4.80;65.83;98142.91;5086647;28;20051;-34
2021/03/16 19:14:23;;;;;;;12.37;6.07;;;4.60;82.90;;;4.87;65.77;98141.50;5086317;28;20364;-34
2021/03/16 19:17:09;;;;;;;9.03;4.53;;;4.60;82.50;;;4.95;66.04;98136.50;5085117;28;20376;-34
2021/03/16 19:19:55;;;;;;;7.53;4.63;;;4.70;82.40;;;4.98;65.24;98146.81;5089054;28;20063;-34
2021/03/16 19:22:41;;;;;;;8.33;4.97;;;4.70;82.60;;;5.02;66.33;98136.88;5086084;28;20059;-34
2021/03/16 19:25:27;;;;;;;8.77;4.70;;;4.70;81.80;;;5.05;66.24;98132.22;5085068;28;20050;-34
2021/03/16 19:28:13;;;;;;;6.97;4.23;;;4.80;81.90;;;4.91;66.72;98145.59;5088924;28;20332;-34
2021/03/16 19:31:00;;;;;;;7.37;3.60;;;4.60;81.50;;;4.96;66.40;98132.88;5080564;28;20055;-35
2021/03/16 19:33:46;;;;;;;9.97;4.33;;;4.60;81.80;;;4.98;65.60;98145.97;5064180;28;20047;-34
2021/03/16 19:36:32;;;;;;;7.27;3.93;;;4.60;81.30;;;4.99;65.56;98132.66;5072426;28;20376;-34
2021/03/16 19:39:18;;;;;;;6.93;3.87;;;4.70;81.30;;;5.04;65.32;98130.53;5086908;28;20407;-35
2021/03/16 19:42:05;;;;;;;5.13;3.30;;;4.70;81.10;;;5.08;65.44;98136.44;5085308;28;20226;-34
2021/03/16 19:44:51;;;;;;;7.70;3.43;;;4.80;80.60;;;5.03;65.43;98130.66;5088971;28;20051;-35
2021/03/16 19:47:37;;;;;;;4.80;3.20;;;4.70;80.60;;;5.02;65.63;98123.66;5086429;28;20360;-34
2021/03/16 19:50:23;;;;;;;4.13;2.67;;;4.70;81.10;;;4.97;66.04;98120.56;5085011;28;20062;-34
2021/03/16 19:53:09;;;;;;;3.87;2.20;;;4.60;80.40;;;4.82;65.66;98120.72;5088276;28;20050;-34